createdAt,value
2023-05-01T00:00:03.549Z,11.7402
2023-05-01T00:01:15.376Z,11.6644
2023-05-01T00:02:23.491Z,11.6874
2023-05-01T00:03:31.576Z,11.7118
2023-05-01T00:04:39.561Z,11.7814
2023-05-01T00:05:47.646Z,11.8537
2023-05-01T00:06:55.642Z,11.9304
2023-05-01T00:08:03.576Z,11.9685
2023-05-01T00:09:11.670Z,11.9492
2023-05-01T00:10:19.710Z,11.9885
2023-05-01T00:11:27.926Z,11.9971
2023-05-01T00:12:36.018Z,12.0038
2023-05-01T00:13:43.985Z,11.9651
2023-05-01T00:14:52.013Z,12.0223
2023-05-01T00:16:00.083Z,11.9950
2023-05-01T00:17:08.242Z,11.9918
2023-05-01T00:18:16.265Z,12.0459
2023-05-01T00:19:24.374Z,12.1207
2023-05-01T00:20:32.383Z,12.1079
2023-05-01T00:21:40.389Z,12.1529
2023-05-01T00:22:48.322Z,12.0955
2023-05-01T00:23:56.367Z,12.0232
2023-05-01T00:25:04.395Z,12.0372
2023-05-01T00:26:12.600Z,12.1051
2023-05-01T00:27:20.701Z,12.1613
2023-05-01T00:28:28.930Z,12.1272
2023-05-01T00:29:36.779Z,12.1520
2023-05-01T00:30:44.863Z,12.1802
2023-05-01T00:31:52.912Z,12.1720
2023-05-01T00:33:01.027Z,12.0995
2023-05-01T00:34:09.056Z,12.0623
2023-05-01T00:35:17.056Z,12.0438
2023-05-01T00:36:25.200Z,12.0787
2023-05-01T00:37:33.028Z,11.9632
2023-05-01T00:38:41.069Z,11.9687
2023-05-01T00:39:49.171Z,11.8300
2023-05-01T00:40:57.549Z,11.6099
2023-05-01T00:42:05.359Z,11.6839
2023-05-01T00:43:13.453Z,11.5941
2023-05-01T00:44:21.480Z,11.6223
2023-05-01T00:45:29.611Z,11.6385
2023-05-01T00:46:37.593Z,11.6284
2023-05-01T00:47:45.676Z,11.5161
2023-05-01T00:48:53.717Z,11.3715
2023-05-01T00:50:01.839Z,11.2504
2023-05-01T00:51:09.896Z,11.1102
2023-05-01T00:52:17.745Z,10.9896
2023-05-01T00:53:25.805Z,11.0553
2023-05-01T00:54:33.866Z,11.0677
2023-05-01T00:55:42.109Z,10.8903
2023-05-01T00:56:50.152Z,10.8020
2023-05-01T00:57:58.200Z,10.8617
2023-05-01T00:59:06.491Z,10.8561
2023-05-01T01:00:14.303Z,11.0026
2023-05-01T01:01:22.470Z,10.9132
2023-05-01T01:02:30.455Z,10.8966
2023-05-01T01:03:38.469Z,10.7699
2023-05-01T01:04:46.565Z,10.7112
2023-05-01T01:05:54.641Z,10.7213
2023-05-01T01:07:02.525Z,10.6477
2023-05-01T01:08:10.530Z,10.7688
2023-05-01T01:09:18.647Z,10.7953
2023-05-01T01:10:26.859Z,10.7619
2023-05-01T01:11:34.860Z,10.7295
2023-05-01T01:12:42.930Z,10.7255
2023-05-01T01:13:50.980Z,10.7955
2023-05-01T01:14:59.211Z,10.7467
2023-05-01T01:16:07.082Z,10.7814
2023-05-01T01:17:15.234Z,10.8521
2023-05-01T01:18:23.190Z,10.8903
2023-05-01T01:19:31.229Z,10.7898
2023-05-01T01:20:39.299Z,10.5874
2023-05-01T01:21:47.237Z,10.4541
2023-05-01T01:22:55.312Z,10.4243
2023-05-01T01:24:03.370Z,10.3474
2023-05-01T01:25:11.648Z,10.3980
2023-05-01T01:26:19.608Z,10.5605
2023-05-01T01:27:27.728Z,10.6131
2023-05-01T01:28:35.734Z,10.5882
2023-05-01T01:29:43.763Z,10.4466
2023-05-01T01:30:51.835Z,10.2889
2023-05-01T01:31:59.855Z,10.3188
2023-05-01T01:33:08.003Z,10.2874
2023-05-01T01:34:15.955Z,10.2164
2023-05-01T01:35:24.019Z,10.1903
2023-05-01T01:36:31.992Z,10.1119
2023-05-01T01:37:40.053Z,9.9986
2023-05-01T01:38:48.078Z,9.9253
2023-05-01T01:39:56.750Z,9.9232
2023-05-01T01:41:04.498Z,9.9992
2023-05-01T01:42:12.440Z,10.0207
2023-05-01T01:43:20.446Z,9.8561
2023-05-01T01:44:28.552Z,9.8429
2023-05-01T01:45:36.539Z,10.0478
2023-05-01T01:46:44.678Z,10.1987
2023-05-01T01:47:52.910Z,10.3755
2023-05-01T01:49:00.687Z,10.4865
2023-05-01T01:50:08.763Z,10.5037
2023-05-01T01:51:16.690Z,10.3669
2023-05-01T01:52:24.807Z,10.3677
2023-05-01T01:53:32.817Z,10.3026
2023-05-01T01:54:41.036Z,10.2010
2023-05-01T01:55:49.070Z,10.2511
2023-05-01T01:56:57.269Z,10.1874
2023-05-01T01:58:05.239Z,10.1785
2023-05-01T01:59:13.247Z,10.0322
2023-05-01T02:00:21.314Z,9.9196
2023-05-01T02:01:29.395Z,9.8368
2023-05-01T02:02:37.472Z,9.8717
2023-05-01T02:03:45.855Z,9.8634
2023-05-01T02:04:53.396Z,9.7056
2023-05-01T02:06:01.492Z,9.7211
2023-05-01T02:07:09.528Z,9.8040
2023-05-01T02:08:17.686Z,9.7865
2023-05-01T02:09:25.922Z,9.7096
2023-05-01T02:10:33.831Z,9.7796
2023-05-01T02:11:41.850Z,9.8719
2023-05-01T02:12:50.031Z,9.9280
2023-05-01T02:13:58.000Z,9.8939
2023-05-01T02:15:06.103Z,9.9065
2023-05-01T02:16:14.346Z,9.8616
2023-05-01T02:17:22.172Z,9.7787
2023-05-01T02:18:30.190Z,9.8559
2023-05-01T02:19:38.148Z,9.8544
2023-05-01T02:20:46.226Z,9.8080
2023-05-01T02:21:54.283Z,9.7678
2023-05-01T02:23:02.436Z,9.8586
2023-05-01T02:24:10.540Z,9.8025
2023-05-01T02:25:18.632Z,9.8584
2023-05-01T02:26:26.630Z,9.8668
2023-05-01T02:27:34.885Z,9.8567
2023-05-01T02:28:42.722Z,9.8107
2023-05-01T02:29:50.771Z,9.8407
2023-05-01T02:30:58.882Z,9.8342
2023-05-01T02:32:07.072Z,9.8965
2023-05-01T02:33:14.960Z,10.0299
2023-05-01T02:34:22.908Z,10.0947
2023-05-01T02:35:30.937Z,10.1512
2023-05-01T02:36:39.041Z,10.1224
2023-05-01T02:37:47.383Z,10.0682
2023-05-01T02:38:55.256Z,10.1252
2023-05-01T02:40:03.315Z,10.1735
2023-05-01T02:41:11.509Z,10.2053
2023-05-01T02:42:19.420Z,10.1897
2023-05-01T02:43:27.692Z,10.1888
2023-05-01T02:44:35.583Z,10.2530
2023-05-01T02:45:43.734Z,10.3064
2023-05-01T02:46:51.753Z,10.2008
2023-05-01T02:47:59.958Z,9.9999
2023-05-01T02:49:07.634Z,9.9885
2023-05-01T02:50:15.702Z,10.0035
2023-05-01T02:51:23.790Z,9.9702
2023-05-01T02:52:31.903Z,10.0108
2023-05-01T02:53:39.972Z,10.0745
2023-05-01T02:54:48.038Z,10.0777
2023-05-01T02:55:56.144Z,10.0070
2023-05-01T02:57:04.187Z,9.9700
2023-05-01T02:58:12.413Z,9.9036
2023-05-01T02:59:20.405Z,9.8500
2023-05-01T03:00:28.296Z,9.8481
2023-05-01T03:01:36.416Z,9.7510
2023-05-01T03:02:44.558Z,9.7634
2023-05-01T03:03:52.439Z,9.7834
2023-05-01T03:05:00.425Z,9.9589
2023-05-01T03:06:08.546Z,10.1147
2023-05-01T03:07:16.691Z,10.1252
2023-05-01T03:08:24.705Z,10.1455
2023-05-01T03:09:32.747Z,10.0097
2023-05-01T03:10:40.846Z,9.9576
2023-05-01T03:11:48.845Z,9.9797
2023-05-01T03:12:57.065Z,10.0138
2023-05-01T03:14:04.986Z,10.0846
2023-05-01T03:15:13.027Z,9.9574
2023-05-01T03:16:21.233Z,9.8639
2023-05-01T03:17:29.253Z,9.8199
2023-05-01T03:18:37.073Z,9.9128
2023-05-01T03:19:45.161Z,9.9139
2023-05-01T03:20:53.175Z,9.9387
2023-05-01T03:22:01.407Z,9.9793
2023-05-01T03:23:09.428Z,9.8248
2023-05-01T03:24:17.441Z,9.8529
2023-05-01T03:25:25.508Z,9.7478
2023-05-01T03:26:33.566Z,9.7243
2023-05-01T03:27:41.691Z,9.7789
2023-05-01T03:28:49.678Z,9.8771
2023-05-01T03:29:57.870Z,9.8956
2023-05-01T03:31:05.782Z,9.9353
2023-05-01T03:32:13.885Z,9.9810
2023-05-01T03:33:21.792Z,10.0106
2023-05-01T03:34:29.833Z,9.9999
2023-05-01T03:35:37.968Z,10.1004
2023-05-01T03:36:46.071Z,10.1525
2023-05-01T03:37:54.115Z,10.1149
2023-05-01T03:39:02.277Z,10.0619
2023-05-01T03:40:10.309Z,9.9225
2023-05-01T03:41:18.312Z,9.8307
2023-05-01T03:42:26.387Z,9.7644
2023-05-01T03:43:34.488Z,9.7857
2023-05-01T03:44:42.606Z,9.7676
2023-05-01T03:45:50.570Z,9.8439
2023-05-01T03:46:58.633Z,9.9547
2023-05-01T03:48:06.588Z,9.8908
2023-05-01T03:49:14.524Z,9.7693
2023-05-01T03:50:22.599Z,9.6892
2023-05-01T03:51:30.783Z,9.6326
2023-05-01T03:52:38.844Z,9.6167
2023-05-01T03:53:46.988Z,9.5782
2023-05-01T03:54:54.970Z,9.5755
2023-05-01T03:56:03.013Z,9.6764
2023-05-01T03:57:11.142Z,9.6494
2023-05-01T03:58:19.256Z,9.6339
2023-05-01T03:59:27.321Z,9.7112
2023-05-01T04:00:35.306Z,9.7709
2023-05-01T04:01:43.423Z,9.8590
2023-05-01T04:02:51.491Z,9.9107
2023-05-01T04:03:59.425Z,9.8590
2023-05-01T04:05:07.450Z,9.8632
2023-05-01T04:06:15.694Z,9.7750
2023-05-01T04:07:23.588Z,9.7153
2023-05-01T04:08:31.683Z,9.8077
2023-05-01T04:09:39.756Z,9.8422
2023-05-01T04:10:47.737Z,9.7989
2023-05-01T04:11:55.996Z,9.7083
2023-05-01T04:13:03.916Z,9.8506
2023-05-01T04:14:12.028Z,9.9858
2023-05-01T04:15:20.040Z,10.0409
2023-05-01T04:16:28.105Z,10.0367
2023-05-01T04:17:35.995Z,10.0337
2023-05-01T04:18:44.005Z,10.0545
2023-05-01T04:19:52.122Z,9.9606
2023-05-01T04:21:00.279Z,9.9597
2023-05-01T04:22:08.521Z,10.0526
2023-05-01T04:23:16.383Z,10.0943
2023-05-01T04:24:24.477Z,10.0917
2023-05-01T04:25:32.583Z,10.1037
2023-05-01T04:26:40.532Z,9.9917
2023-05-01T04:27:48.594Z,9.9192
2023-05-01T04:28:56.897Z,9.9200
2023-05-01T04:30:04.833Z,9.8878
2023-05-01T04:31:13.024Z,9.5357
2023-05-01T04:32:20.698Z,9.5118
2023-05-01T04:33:28.736Z,9.6349
2023-05-01T04:34:36.758Z,9.8109
2023-05-01T04:35:45.000Z,9.9784
2023-05-01T04:36:53.009Z,10.1193
2023-05-01T04:38:01.160Z,10.1897
2023-05-01T04:39:09.188Z,10.0085
2023-05-01T04:40:17.191Z,9.9860
2023-05-01T04:41:25.270Z,10.0045
2023-05-01T04:42:33.341Z,9.9286
2023-05-01T04:43:41.357Z,10.0097
2023-05-01T04:44:49.505Z,10.0697
2023-05-01T04:45:57.787Z,10.2179
2023-05-01T04:47:05.476Z,10.3019
2023-05-01T04:48:13.461Z,10.3131
2023-05-01T04:49:21.494Z,10.3797
2023-05-01T04:50:29.657Z,10.4300
2023-05-01T04:51:37.698Z,10.4884
2023-05-01T04:52:45.874Z,10.5080
2023-05-01T04:53:53.820Z,10.4749
2023-05-01T04:55:01.881Z,10.4644
2023-05-01T04:56:09.990Z,10.2876
2023-05-01T04:57:18.028Z,10.0848
2023-05-01T04:58:26.036Z,10.1546
2023-05-01T04:59:34.125Z,10.2670
2023-05-01T05:00:42.118Z,10.3392
2023-05-01T05:01:50.099Z,10.3968
2023-05-01T05:02:58.261Z,10.4052
2023-05-01T05:04:06.410Z,10.3684
2023-05-01T05:05:14.357Z,10.3905
2023-05-01T05:06:22.460Z,10.4670
2023-05-01T05:07:30.471Z,10.5069
2023-05-01T05:08:38.569Z,10.4918
2023-05-01T05:09:46.591Z,10.3549
2023-05-01T05:10:54.632Z,10.1422
2023-05-01T05:12:02.654Z,10.1161
2023-05-01T05:13:10.811Z,10.3064
2023-05-01T05:14:18.821Z,10.3225
2023-05-01T05:15:26.834Z,10.3032
2023-05-01T05:16:34.843Z,10.2490
2023-05-01T05:17:42.920Z,10.2561
2023-05-01T05:18:50.901Z,10.0018
2023-05-01T05:19:59.326Z,10.0142
2023-05-01T05:21:07.102Z,10.1710
2023-05-01T05:22:15.196Z,10.2540
2023-05-01T05:23:23.306Z,10.3167
2023-05-01T05:24:31.314Z,10.3804
2023-05-01T05:25:39.328Z,10.2900
2023-05-01T05:26:47.406Z,10.0823
2023-05-01T05:27:55.468Z,10.0430
2023-05-01T05:29:03.567Z,9.9952
2023-05-01T05:30:11.622Z,9.9911
2023-05-01T05:31:19.494Z,10.1859
2023-05-01T05:32:27.648Z,10.3518
2023-05-01T05:33:35.615Z,10.2662
2023-05-01T05:34:43.919Z,10.2355
2023-05-01T05:35:51.855Z,10.3499
2023-05-01T05:36:59.923Z,10.4274
2023-05-01T05:38:08.014Z,10.3986
2023-05-01T05:39:16.031Z,10.4474
2023-05-01T05:40:24.073Z,10.4007
2023-05-01T05:41:32.081Z,10.5096
2023-05-01T05:42:40.184Z,10.5769
2023-05-01T05:43:48.259Z,10.6219
2023-05-01T05:44:56.462Z,10.5874
2023-05-01T05:46:04.331Z,10.5281
2023-05-01T05:47:12.274Z,10.5513
2023-05-01T05:48:20.354Z,10.4819
2023-05-01T05:49:28.525Z,10.4710
2023-05-01T05:50:36.557Z,10.5813
2023-05-01T05:51:44.610Z,10.6059
2023-05-01T05:52:52.682Z,10.5382
2023-05-01T05:54:00.742Z,10.4289
2023-05-01T05:55:08.758Z,10.4373
2023-05-01T05:56:16.960Z,10.3455
2023-05-01T05:57:24.912Z,10.1531
2023-05-01T05:58:32.971Z,10.0360
2023-05-01T05:59:40.992Z,10.1188
2023-05-01T06:00:48.968Z,10.2525
2023-05-01T06:01:57.021Z,10.2841
2023-05-01T06:03:05.217Z,10.3114
2023-05-01T06:04:13.196Z,10.3429
2023-05-01T06:05:21.354Z,10.3774
2023-05-01T06:06:29.355Z,10.4804
2023-05-01T06:07:37.428Z,10.5737
2023-05-01T06:08:45.459Z,10.5037
2023-05-01T06:09:53.691Z,10.3236
2023-05-01T06:11:01.548Z,10.1619
2023-05-01T06:12:09.657Z,10.1113
2023-05-01T06:13:17.756Z,10.1220
2023-05-01T06:14:25.735Z,9.9246
2023-05-01T06:15:33.703Z,9.9099
2023-05-01T06:16:41.695Z,10.0966
2023-05-01T06:17:49.751Z,10.1271
2023-05-01T06:18:58.054Z,9.9877
2023-05-01T06:20:05.974Z,10.0798
2023-05-01T06:21:14.054Z,10.0497
2023-05-01T06:22:22.139Z,9.8605
2023-05-01T06:23:30.151Z,9.9778
2023-05-01T06:24:38.224Z,9.9786
2023-05-01T06:25:46.273Z,9.9486
2023-05-01T06:26:54.278Z,9.9767
2023-05-01T06:28:02.394Z,9.9940
2023-05-01T06:29:10.470Z,9.9490
2023-05-01T06:30:18.382Z,9.8752
2023-05-01T06:31:26.405Z,9.9311
2023-05-01T06:32:34.488Z,10.1317
2023-05-01T06:33:42.652Z,10.1954
2023-05-01T06:34:50.681Z,10.1182
2023-05-01T06:35:58.863Z,10.1815
2023-05-01T06:37:07.004Z,10.1771
2023-05-01T06:38:14.841Z,10.1430
2023-05-01T06:39:23.005Z,10.1256
2023-05-01T06:40:30.938Z,10.2401
2023-05-01T06:41:39.008Z,10.3276
2023-05-01T06:42:47.107Z,10.3980
2023-05-01T06:43:55.106Z,10.3766
2023-05-01T06:45:03.098Z,10.4281
2023-05-01T06:46:11.214Z,10.3829
2023-05-01T06:47:19.171Z,10.1640
2023-05-01T06:48:27.350Z,10.1161
2023-05-01T06:49:35.421Z,9.8771
2023-05-01T06:50:43.433Z,10.0211
2023-05-01T06:51:51.565Z,10.1565
2023-05-01T06:52:59.710Z,10.1159
2023-05-01T06:54:07.595Z,10.0398
2023-05-01T06:55:15.717Z,10.0890
2023-05-01T06:56:23.795Z,9.9429
2023-05-01T06:57:31.767Z,9.9004
2023-05-01T06:58:39.883Z,9.8847
2023-05-01T06:59:47.745Z,9.9158
2023-05-01T07:00:55.878Z,10.2746
2023-05-01T07:02:03.976Z,10.5025
2023-05-01T07:03:12.149Z,10.5529
2023-05-01T07:04:20.096Z,10.3574
2023-05-01T07:05:28.133Z,10.4304
2023-05-01T07:06:36.328Z,10.1416
2023-05-01T07:07:50.428Z,9.8330
2023-05-01T07:08:57.562Z,9.8851
2023-05-01T07:10:05.247Z,9.9084
2023-05-01T07:11:13.397Z,10.1352
2023-05-01T07:12:21.359Z,10.2782
2023-05-01T07:13:29.293Z,10.4741
2023-05-01T07:14:37.367Z,10.4880
2023-05-01T07:15:45.397Z,10.3585
2023-05-01T07:16:53.653Z,10.2860
2023-05-01T07:18:01.722Z,10.2786
2023-05-01T07:19:09.682Z,10.4287
2023-05-01T07:20:17.766Z,10.4203
2023-05-01T07:21:25.908Z,10.4195
2023-05-01T07:22:33.862Z,10.5532
2023-05-01T07:23:41.899Z,10.7318
2023-05-01T07:24:49.973Z,10.6351
2023-05-01T07:25:58.200Z,10.3724
2023-05-01T07:27:06.121Z,10.3959
2023-05-01T07:28:14.013Z,10.5023
2023-05-01T07:29:22.084Z,10.5239
2023-05-01T07:30:30.136Z,10.6988
2023-05-01T07:31:38.476Z,10.6831
2023-05-01T07:32:46.437Z,10.6473
2023-05-01T07:33:54.419Z,10.5998
2023-05-01T07:35:02.460Z,10.6021
2023-05-01T07:36:10.502Z,10.4382
2023-05-01T07:37:18.633Z,10.2183
2023-05-01T07:38:26.813Z,10.2338
2023-05-01T07:39:34.703Z,10.4367
2023-05-01T07:40:42.906Z,10.4640
2023-05-01T07:41:50.816Z,10.5969
2023-05-01T07:42:58.758Z,10.5130
2023-05-01T07:44:06.769Z,10.6271
2023-05-01T07:45:14.857Z,10.6749
2023-05-01T07:46:23.065Z,10.7959
2023-05-01T07:47:31.127Z,10.7575
2023-05-01T07:48:39.286Z,10.8542
2023-05-01T07:49:47.245Z,10.8876
2023-05-01T07:50:55.247Z,10.6820
2023-05-01T07:52:03.306Z,10.6597
2023-05-01T07:53:11.536Z,10.8811
2023-05-01T07:54:19.501Z,10.7987
2023-05-01T07:55:27.525Z,11.0009
2023-05-01T07:56:35.576Z,11.0114
2023-05-01T07:57:43.439Z,10.9362
2023-05-01T07:58:51.502Z,10.8857
2023-05-01T07:59:59.692Z,11.0530
2023-05-01T08:01:07.741Z,11.2168
2023-05-01T08:02:15.814Z,11.2363
2023-05-01T08:03:24.220Z,11.1632
2023-05-01T08:04:31.913Z,10.9223
2023-05-01T08:05:40.014Z,10.7278
2023-05-01T08:06:48.093Z,10.6572
2023-05-01T08:07:56.268Z,10.7531
2023-05-01T08:09:04.227Z,10.7730
2023-05-01T08:10:12.257Z,10.8872
2023-05-01T08:11:20.347Z,10.9175
2023-05-01T08:12:28.218Z,10.8968
2023-05-01T08:13:36.251Z,10.9681
2023-05-01T08:14:44.322Z,11.0354
2023-05-01T08:15:52.668Z,10.8479
2023-05-01T08:17:00.557Z,10.8823
2023-05-01T08:18:08.638Z,10.9673
2023-05-01T08:19:16.706Z,11.0080
2023-05-01T08:20:24.708Z,10.7875
2023-05-01T08:21:32.839Z,10.5946
2023-05-01T08:22:41.093Z,10.5544
2023-05-01T08:23:48.879Z,10.3539
2023-05-01T08:24:56.966Z,10.7266
2023-05-01T08:26:05.074Z,11.0980
2023-05-01T08:27:12.918Z,10.9246
2023-05-01T08:28:21.046Z,10.9479
2023-05-01T08:29:29.019Z,11.0238
2023-05-01T08:30:37.237Z,11.1552
2023-05-01T08:31:45.552Z,11.2193
2023-05-01T08:32:53.362Z,11.2283
2023-05-01T08:34:01.378Z,11.3848
2023-05-01T08:35:09.496Z,11.3683
2023-05-01T08:36:18.877Z,11.3576
2023-05-01T08:37:30.415Z,11.2863
2023-05-01T08:38:38.620Z,11.3398
2023-05-01T08:39:46.542Z,11.2691
2023-05-01T08:40:54.469Z,11.3810
2023-05-01T08:42:02.553Z,11.2716
2023-05-01T08:43:10.596Z,10.9303
2023-05-01T08:44:18.744Z,11.0911
2023-05-01T08:45:26.842Z,11.2536
2023-05-01T08:46:34.906Z,11.3471
2023-05-01T08:47:42.998Z,11.0429
2023-05-01T08:48:50.961Z,11.3370
2023-05-01T08:49:59.199Z,11.2841
2023-05-01T08:51:07.116Z,11.2279
2023-05-01T08:52:15.214Z,11.2838
2023-05-01T08:53:23.260Z,11.2456
2023-05-01T08:54:31.263Z,11.1268
2023-05-01T08:55:39.209Z,11.0755
2023-05-01T08:56:47.222Z,11.2906
2023-05-01T08:57:55.314Z,11.2677
2023-05-01T08:59:03.512Z,11.0337
2023-05-01T09:00:11.695Z,11.0619
2023-05-01T09:01:19.602Z,10.9156
2023-05-01T09:02:27.744Z,11.0837
2023-05-01T09:03:35.858Z,11.0606
2023-05-01T09:04:43.730Z,10.8187
2023-05-01T09:05:51.792Z,11.0120
2023-05-01T09:06:59.913Z,10.7444
2023-05-01T09:08:07.914Z,10.7951
2023-05-01T09:09:16.026Z,11.0316
2023-05-01T09:10:23.897Z,11.1153
2023-05-01T09:11:31.937Z,11.1989
2023-05-01T09:12:39.997Z,11.0381
2023-05-01T09:13:48.253Z,11.0856
2023-05-01T09:14:56.363Z,11.0141
2023-05-01T09:16:04.321Z,10.8050
2023-05-01T09:17:12.372Z,11.0326
2023-05-01T09:18:20.473Z,11.2384
2023-05-01T09:19:28.508Z,11.3520
2023-05-01T09:20:36.529Z,11.5207
2023-05-01T09:21:44.586Z,11.6391
2023-05-01T09:22:52.643Z,11.7745
2023-05-01T09:24:00.731Z,11.8144
2023-05-01T09:25:08.630Z,11.7482
2023-05-01T09:26:16.656Z,11.6561
2023-05-01T09:27:24.745Z,11.7511
2023-05-01T09:28:32.779Z,11.8298
2023-05-01T09:29:40.882Z,11.4909
2023-05-01T09:30:49.026Z,11.8369
2023-05-01T09:31:57.108Z,12.1096
2023-05-01T09:33:05.181Z,12.0293
2023-05-01T09:34:13.278Z,11.7814
2023-05-01T09:35:21.301Z,11.9361
2023-05-01T09:36:29.404Z,12.0148
2023-05-01T09:37:37.363Z,12.0738
2023-05-01T09:38:45.462Z,12.0620
2023-05-01T09:39:53.543Z,11.8134
2023-05-01T09:41:01.521Z,11.5756
2023-05-01T09:42:09.473Z,11.5092
2023-05-01T09:43:17.508Z,11.4188
2023-05-01T09:44:25.627Z,11.7177
2023-05-01T09:45:34.028Z,11.9248
2023-05-01T09:46:41.832Z,11.8052
2023-05-01T09:47:49.916Z,12.0629
2023-05-01T09:48:57.983Z,12.2309
2023-05-01T09:50:06.048Z,12.0402
2023-05-01T09:51:14.159Z,12.1327
2023-05-01T09:52:22.149Z,12.1383
2023-05-01T09:53:30.168Z,12.3515
2023-05-01T09:54:38.237Z,12.5392
2023-05-01T09:55:46.373Z,12.6202
2023-05-01T09:56:54.195Z,12.1903
2023-05-01T09:58:02.246Z,12.1459
2023-05-01T09:59:10.285Z,12.2620
2023-05-01T10:00:18.386Z,12.3328
2023-05-01T10:01:26.650Z,12.4045
2023-05-01T10:02:34.705Z,12.7084
2023-05-01T10:03:42.905Z,13.0938
2023-05-01T10:04:50.712Z,13.3319
2023-05-01T10:05:58.815Z,13.5638
2023-05-01T10:07:06.854Z,13.5335
2023-05-01T10:08:14.921Z,13.5007
2023-05-01T10:09:23.100Z,13.0313
2023-05-01T10:10:31.078Z,13.0013
2023-05-01T10:11:38.996Z,12.7761
2023-05-01T10:12:46.947Z,12.6914
2023-05-01T10:13:55.027Z,12.6542
2023-05-01T10:15:10.991Z,12.6269
2023-05-01T10:16:16.169Z,12.5889
2023-05-01T10:17:24.280Z,12.7648
2023-05-01T10:18:32.185Z,12.7873
2023-05-01T10:19:40.263Z,12.9002
2023-05-01T10:20:48.354Z,13.0564
2023-05-01T10:21:56.413Z,13.1617
2023-05-01T10:23:04.444Z,12.9979
2023-05-01T10:24:12.671Z,13.0606
2023-05-01T10:25:20.456Z,12.9739
2023-05-01T10:26:28.485Z,13.0242
2023-05-01T10:27:36.593Z,13.0408
2023-05-01T10:28:44.720Z,13.1486
2023-05-01T10:29:52.745Z,13.0704
2023-05-01T10:31:00.878Z,13.2550
2023-05-01T10:32:08.917Z,13.1114
2023-05-01T10:33:16.964Z,13.2850
2023-05-01T10:34:26.436Z,13.5316
2023-05-01T10:35:37.918Z,13.7440
2023-05-01T10:36:45.912Z,13.8652
2023-05-01T10:37:54.059Z,13.7532
2023-05-01T10:39:01.927Z,14.0256
2023-05-01T10:40:09.982Z,14.1280
2023-05-01T10:41:18.060Z,14.1927
2023-05-01T10:42:26.357Z,14.2657
2023-05-01T10:43:34.272Z,14.4759
2023-05-01T10:44:42.347Z,14.1801
2023-05-01T10:45:50.377Z,13.9655
2023-05-01T10:46:58.437Z,13.9060
2023-05-01T10:48:06.630Z,13.9624
2023-05-01T10:49:14.661Z,13.7936
2023-05-01T10:50:22.588Z,13.8543
2023-05-01T10:51:30.690Z,13.7931
2023-05-01T10:52:38.733Z,13.6620
2023-05-01T10:53:46.623Z,13.6527
2023-05-01T10:54:54.818Z,13.4867
2023-05-01T10:56:02.720Z,13.4171
2023-05-01T10:57:10.883Z,13.3647
2023-05-01T10:58:19.011Z,13.1976
2023-05-01T10:59:27.095Z,12.8329
2023-05-01T11:00:35.070Z,12.9582
2023-05-01T11:01:43.213Z,13.0891
2023-05-01T11:02:51.241Z,12.8775
2023-05-01T11:03:59.222Z,13.1692
2023-05-01T11:05:07.327Z,13.4703
2023-05-01T11:06:15.778Z,13.5093
2023-05-01T11:07:23.290Z,13.3992
2023-05-01T11:08:31.335Z,13.4387
2023-05-01T11:09:39.362Z,13.3708
2023-05-01T11:10:47.548Z,13.1404
2023-05-01T11:11:55.614Z,13.1242
2023-05-01T11:13:03.710Z,12.9132
2023-05-01T11:14:11.857Z,12.7440
2023-05-01T11:15:19.764Z,12.5943
2023-05-01T11:16:27.903Z,12.3301
2023-05-01T11:17:35.905Z,12.3572
2023-05-01T11:18:43.993Z,12.3418
2023-05-01T11:19:52.071Z,12.1188
2023-05-01T11:21:00.077Z,11.9914
2023-05-01T11:22:08.021Z,12.1577
2023-05-01T11:23:16.067Z,12.4608
2023-05-01T11:24:24.096Z,12.3654
2023-05-01T11:25:32.259Z,12.4797
2023-05-01T11:26:40.394Z,12.3486
2023-05-01T11:27:48.337Z,12.3919
2023-05-01T11:28:56.554Z,12.3866
2023-05-01T11:30:04.625Z,12.5939
2023-05-01T11:31:12.846Z,12.3820
2023-05-01T11:32:20.784Z,12.1287
2023-05-01T11:33:28.765Z,12.0158
2023-05-01T11:34:36.706Z,12.1453
2023-05-01T11:35:44.756Z,12.3704
2023-05-01T11:36:52.699Z,12.4682
2023-05-01T11:38:00.747Z,12.3971
2023-05-01T11:39:08.824Z,12.0574
2023-05-01T11:40:17.007Z,12.3709
2023-05-01T11:41:25.030Z,12.7076
2023-05-01T11:42:33.143Z,12.8077
2023-05-01T11:43:41.232Z,12.6929
2023-05-01T11:44:49.215Z,12.4015
2023-05-01T11:45:57.423Z,12.3524
2023-05-01T11:47:05.347Z,12.4360
2023-05-01T11:48:13.398Z,12.1249
2023-05-01T11:49:21.443Z,12.1201
2023-05-01T11:50:29.474Z,12.0673
2023-05-01T11:51:37.414Z,12.1539
2023-05-01T11:52:45.468Z,12.2987
2023-05-01T11:53:53.540Z,12.5918
2023-05-01T11:55:02.004Z,12.5071
2023-05-01T11:56:19.473Z,12.7787
2023-05-01T11:57:22.671Z,12.7512
2023-05-01T11:58:30.776Z,12.4974
2023-05-01T11:59:38.841Z,12.0890
2023-05-01T12:00:46.847Z,12.0383
2023-05-01T12:01:54.933Z,11.9557
2023-05-01T12:03:03.287Z,11.8369
2023-05-01T12:04:10.962Z,11.8851
2023-05-01T12:05:18.982Z,12.1701
2023-05-01T12:06:27.069Z,12.5380
2023-05-01T12:07:35.189Z,12.5089
2023-05-01T12:08:43.271Z,12.4467
2023-05-01T12:09:51.287Z,12.7168
2023-05-01T12:10:59.530Z,12.5308
2023-05-01T12:12:07.388Z,12.5521
2023-05-01T12:13:15.464Z,12.7538
2023-05-01T12:14:23.480Z,12.7662
2023-05-01T12:15:31.672Z,12.6572
2023-05-01T12:16:39.816Z,12.4856
2023-05-01T12:17:47.842Z,12.5766
2023-05-01T12:18:55.711Z,13.0200
2023-05-01T12:20:03.769Z,13.2447
2023-05-01T12:21:11.846Z,13.4023
2023-05-01T12:22:20.010Z,13.5218
2023-05-01T12:23:28.053Z,13.5032
2023-05-01T12:24:36.119Z,13.5682
2023-05-01T12:25:44.196Z,13.9346
2023-05-01T12:26:52.354Z,13.7917
2023-05-01T12:28:00.296Z,14.0481
2023-05-01T12:29:08.362Z,14.2794
2023-05-01T12:30:16.372Z,14.5268
2023-05-01T12:31:24.531Z,14.5642
2023-05-01T12:32:32.641Z,14.5161
2023-05-01T12:33:40.428Z,14.7448
2023-05-01T12:34:48.494Z,14.6888
2023-05-01T12:35:56.594Z,14.8160
2023-05-01T12:37:05.415Z,15.2587
2023-05-01T12:38:12.878Z,15.3157
2023-05-01T12:39:20.886Z,15.3416
2023-05-01T12:40:28.914Z,15.3731
2023-05-01T12:41:37.067Z,15.1791
2023-05-01T12:42:45.215Z,15.2489
2023-05-01T12:43:53.067Z,15.3027
2023-05-01T12:45:01.285Z,15.1679
2023-05-01T12:46:09.238Z,15.5791
2023-05-01T12:47:17.273Z,15.5743
2023-05-01T12:48:25.159Z,15.5322
2023-05-01T12:49:33.250Z,15.4462
2023-05-01T12:50:41.291Z,15.1273
2023-05-01T12:51:49.556Z,14.5648
2023-05-01T12:52:57.538Z,14.1686
2023-05-01T12:54:05.468Z,13.6216
2023-05-01T12:55:13.649Z,13.0715
2023-05-01T12:56:21.671Z,12.9733
2023-05-01T12:57:29.876Z,12.9470
2023-05-01T12:58:37.980Z,12.8674
2023-05-01T12:59:46.020Z,12.7551
2023-05-01T13:00:53.927Z,12.6050
2023-05-01T13:02:02.021Z,12.7477
2023-05-01T13:03:10.035Z,12.7978
2023-05-01T13:04:18.009Z,12.8781
2023-05-01T13:05:26.017Z,12.8064
2023-05-01T13:06:34.184Z,12.6313
2023-05-01T13:07:42.285Z,12.5499
2023-05-01T13:08:50.302Z,12.4266
2023-05-01T13:09:58.768Z,12.5768
2023-05-01T13:11:06.419Z,12.6395
2023-05-01T13:12:14.467Z,12.3841
2023-05-01T13:13:22.577Z,12.1018
2023-05-01T13:14:30.580Z,12.2947
2023-05-01T13:15:38.655Z,12.2357
2023-05-01T13:16:46.831Z,11.9210
2023-05-01T13:17:54.846Z,11.7326
2023-05-01T13:19:02.694Z,11.6832
2023-05-01T13:20:10.784Z,11.6046
2023-05-01T13:21:18.807Z,11.6177
2023-05-01T13:22:27.004Z,11.6031
2023-05-01T13:23:35.154Z,11.2565
2023-05-01T13:24:43.138Z,11.0833
2023-05-01T13:25:51.187Z,10.9866
2023-05-01T13:26:59.267Z,11.0253
2023-05-01T13:28:07.298Z,11.1680
2023-05-01T13:29:15.331Z,11.2527
2023-05-01T13:30:23.432Z,11.4478
2023-05-01T13:31:31.440Z,11.3364
2023-05-01T13:32:39.508Z,11.3133
2023-05-01T13:33:47.454Z,11.3951
2023-05-01T13:34:55.478Z,11.4766
2023-05-01T13:36:11.054Z,11.3744
2023-05-01T13:37:16.554Z,11.4397
2023-05-01T13:38:24.696Z,11.7591
2023-05-01T13:39:32.658Z,11.9965
2023-05-01T13:40:40.768Z,12.2721
2023-05-01T13:41:48.849Z,12.5377
2023-05-01T13:42:57.077Z,12.7709
2023-05-01T13:44:04.961Z,12.9214
2023-05-01T13:45:12.981Z,12.9565
2023-05-01T13:46:21.082Z,13.1728
2023-05-01T13:47:29.052Z,12.9792